sensor_id;sensor_type;location;lat;lon;timestamp;P1;durP1;ratioP1;P2;durP2;ratioP2
40793;SDS011;26502;51.886;15.604;2024-03-02T00:06:21;24.20;;;18.80;;
40793;SDS011;26502;51.886;15.604;2024-03-02T00:11:47;27.80;;;19.00;;
40793;SDS011;26502;51.886;15.604;2024-03-02T00:17:16;29.40;;;18.80;;
40793;SDS011;26502;51.886;15.604;2024-03-02T00:22:48;25.30;;;18.00;;
40793;SDS011;26502;51.886;15.604;2024-03-02T00:28:16;27.50;;;18.40;;
40793;SDS011;26502;51.886;15.604;2024-03-02T00:33:44;26.80;;;18.60;;
40793;SDS011;26502;51.886;15.604;2024-03-02T00:39:10;24.80;;;18.50;;
40793;SDS011;26502;51.886;15.604;2024-03-02T00:44:39;26.30;;;18.40;;
40793;SDS011;26502;51.886;15.604;2024-03-02T00:50:05;26.30;;;18.50;;
40793;SDS011;26502;51.886;15.604;2024-03-02T00:55:36;26.90;;;19.00;;
40793;SDS011;26502;51.886;15.604;2024-03-02T01:01:07;29.90;;;19.00;;
40793;SDS011;26502;51.886;15.604;2024-03-02T01:06:34;30.50;;;21.40;;
40793;SDS011;26502;51.886;15.604;2024-03-02T01:12:00;25.90;;;20.30;;
40793;SDS011;26502;51.886;15.604;2024-03-02T01:17:26;29.80;;;20.70;;
40793;SDS011;26502;51.886;15.604;2024-03-02T01:22:52;32.00;;;22.30;;
40793;SDS011;26502;51.886;15.604;2024-03-02T01:28:18;31.30;;;23.10;;
40793;SDS011;26502;51.886;15.604;2024-03-02T01:33:44;32.50;;;24.20;;
40793;SDS011;26502;51.886;15.604;2024-03-02T01:39:10;35.40;;;26.00;;
40793;SDS011;26502;51.886;15.604;2024-03-02T01:44:36;34.30;;;27.30;;
40793;SDS011;26502;51.886;15.604;2024-03-02T01:50:04;37.10;;;27.80;;
40793;SDS011;26502;51.886;15.604;2024-03-02T01:55:36;40.10;;;29.70;;
40793;SDS011;26502;51.886;15.604;2024-03-02T02:01:02;39.70;;;29.00;;
40793;SDS011;26502;51.886;15.604;2024-03-02T02:06:28;49.50;;;32.70;;
40793;SDS011;26502;51.886;15.604;2024-03-02T02:11:54;40.80;;;30.80;;
40793;SDS011;26502;51.886;15.604;2024-03-02T02:17:20;48.00;;;33.20;;
40793;SDS011;26502;51.886;15.604;2024-03-02T02:22:56;52.60;;;32.90;;
40793;SDS011;26502;51.886;15.604;2024-03-02T02:28:23;51.20;;;35.60;;
40793;SDS011;26502;51.886;15.604;2024-03-02T02:33:49;57.70;;;39.70;;
40793;SDS011;26502;51.886;15.604;2024-03-02T02:39:15;61.00;;;42.70;;
40793;SDS011;26502;51.886;15.604;2024-03-02T02:44:44;59.80;;;41.10;;
40793;SDS011;26502;51.886;15.604;2024-03-02T02:50:12;63.20;;;44.60;;
40793;SDS011;26502;51.886;15.604;2024-03-02T02:55:41;62.30;;;42.20;;
40793;SDS011;26502;51.886;15.604;2024-03-02T03:01:06;60.50;;;42.80;;
40793;SDS011;26502;51.886;15.604;2024-03-02T03:06:32;64.60;;;46.40;;
40793;SDS011;26502;51.886;15.604;2024-03-02T03:11:58;61.10;;;43.70;;
40793;SDS011;26502;51.886;15.604;2024-03-02T03:17:24;67.30;;;46.80;;
40793;SDS011;26502;51.886;15.604;2024-03-02T03:22:51;67.90;;;47.30;;
40793;SDS011;26502;51.886;15.604;2024-03-02T03:28:16;67.40;;;46.50;;
40793;SDS011;26502;51.886;15.604;2024-03-02T03:33:42;70.10;;;48.80;;
40793;SDS011;26502;51.886;15.604;2024-03-02T03:39:08;67.00;;;45.60;;
40793;SDS011;26502;51.886;15.604;2024-03-02T03:44:34;69.10;;;46.90;;
40793;SDS011;26502;51.886;15.604;2024-03-02T03:50:00;65.60;;;45.50;;
40793;SDS011;26502;51.886;15.604;2024-03-02T03:55:29;71.40;;;46.70;;
40793;SDS011;26502;51.886;15.604;2024-03-02T04:00:55;64.60;;;45.40;;
40793;SDS011;26502;51.886;15.604;2024-03-02T04:06:23;67.00;;;46.50;;
40793;SDS011;26502;51.886;15.604;2024-03-02T04:11:48;66.40;;;45.70;;
40793;SDS011;26502;51.886;15.604;2024-03-02T04:17:14;62.70;;;43.00;;
40793;SDS011;26502;51.886;15.604;2024-03-02T04:22:40;67.80;;;48.30;;
40793;SDS011;26502;51.886;15.604;2024-03-02T04:28:06;70.70;;;48.00;;
40793;SDS011;26502;51.886;15.604;2024-03-02T04:33:32;70.60;;;49.60;;
40793;SDS011;26502;51.886;15.604;2024-03-02T04:38:58;74.40;;;51.20;;
40793;SDS011;26502;51.886;15.604;2024-03-02T04:44:24;74.40;;;51.40;;
40793;SDS011;26502;51.886;15.604;2024-03-02T04:49:52;71.60;;;49.50;;
40793;SDS011;26502;51.886;15.604;2024-03-02T04:55:18;79.70;;;51.20;;
40793;SDS011;26502;51.886;15.604;2024-03-02T05:01:08;77.20;;;51.50;;
40793;SDS011;26502;51.886;15.604;2024-03-02T05:06:34;75.80;;;52.20;;
40793;SDS011;26502;51.886;15.604;2024-03-02T05:12:00;80.70;;;54.80;;
40793;SDS011;26502;51.886;15.604;2024-03-02T05:17:46;80.80;;;51.70;;
40793;SDS011;26502;51.886;15.604;2024-03-02T05:23:12;80.70;;;55.70;;
40793;SDS011;26502;51.886;15.604;2024-03-02T05:28:37;78.00;;;51.60;;
40793;SDS011;26502;51.886;15.604;2024-03-02T05:34:03;76.80;;;52.00;;
40793;SDS011;26502;51.886;15.604;2024-03-02T05:39:29;79.80;;;50.60;;
40793;SDS011;26502;51.886;15.604;2024-03-02T05:44:55;74.50;;;49.40;;
40793;SDS011;26502;51.886;15.604;2024-03-02T05:50:21;77.30;;;49.10;;
40793;SDS011;26502;51.886;15.604;2024-03-02T05:55:49;68.60;;;47.30;;
40793;SDS011;26502;51.886;15.604;2024-03-02T06:01:18;72.10;;;48.00;;
40793;SDS011;26502;51.886;15.604;2024-03-02T06:06:50;77.80;;;51.80;;
40793;SDS011;26502;51.886;15.604;2024-03-02T06:12:17;88.40;;;57.90;;
40793;SDS011;26502;51.886;15.604;2024-03-02T06:17:43;81.20;;;55.30;;
40793;SDS011;26502;51.886;15.604;2024-03-02T06:23:08;88.50;;;60.10;;
40793;SDS011;26502;51.886;15.604;2024-03-02T06:28:34;92.20;;;58.80;;
40793;SDS011;26502;51.886;15.604;2024-03-02T06:34:00;89.50;;;59.50;;
40793;SDS011;26502;51.886;15.604;2024-03-02T06:39:27;78.80;;;53.60;;
40793;SDS011;26502;51.886;15.604;2024-03-02T06:44:54;70.80;;;46.70;;
40793;SDS011;26502;51.886;15.604;2024-03-02T06:50:20;69.40;;;45.30;;
40793;SDS011;26502;51.886;15.604;2024-03-02T06:55:46;66.10;;;46.10;;
40793;SDS011;26502;51.886;15.604;2024-03-02T07:01:12;73.20;;;48.10;;
40793;SDS011;26502;51.886;15.604;2024-03-02T07:06:38;79.00;;;52.80;;
40793;SDS011;26502;51.886;15.604;2024-03-02T07:12:06;76.70;;;50.40;;
40793;SDS011;26502;51.886;15.604;2024-03-02T07:17:32;84.30;;;56.00;;
40793;SDS011;26502;51.886;15.604;2024-03-02T07:23:00;79.50;;;54.60;;
40793;SDS011;26502;51.886;15.604;2024-03-02T07:28:26;77.40;;;53.20;;
40793;SDS011;26502;51.886;15.604;2024-03-02T07:33:52;78.00;;;53.30;;
40793;SDS011;26502;51.886;15.604;2024-03-02T07:39:18;80.30;;;53.00;;
40793;SDS011;26502;51.886;15.604;2024-03-02T07:44:44;81.70;;;55.90;;
40793;SDS011;26502;51.886;15.604;2024-03-02T07:50:10;79.10;;;53.70;;
40793;SDS011;26502;51.886;15.604;2024-03-02T07:55:36;85.60;;;57.40;;
40793;SDS011;26502;51.886;15.604;2024-03-02T08:01:03;90.30;;;61.30;;
40793;SDS011;26502;51.886;15.604;2024-03-02T08:06:29;81.20;;;59.20;;
40793;SDS011;26502;51.886;15.604;2024-03-02T08:11:56;92.30;;;61.40;;
40793;SDS011;26502;51.886;15.604;2024-03-02T08:17:22;85.20;;;60.30;;
40793;SDS011;26502;51.886;15.604;2024-03-02T08:22:48;84.50;;;58.90;;
40793;SDS011;26502;51.886;15.604;2024-03-02T08:28:14;91.50;;;60.40;;
40793;SDS011;26502;51.886;15.604;2024-03-02T08:33:40;91.00;;;63.10;;
40793;SDS011;26502;51.886;15.604;2024-03-02T08:39:06;84.30;;;58.90;;
40793;SDS011;26502;51.886;15.604;2024-03-02T08:44:38;79.20;;;54.10;;
40793;SDS011;26502;51.886;15.604;2024-03-02T08:50:07;89.30;;;61.70;;
40793;SDS011;26502;51.886;15.604;2024-03-02T08:55:35;97.00;;;68.50;;
40793;SDS011;26502;51.886;15.604;2024-03-02T09:01:01;92.90;;;65.20;;
40793;SDS011;26502;51.886;15.604;2024-03-02T09:06:28;79.10;;;57.40;;
40793;SDS011;26502;51.886;15.604;2024-03-02T09:11:54;79.20;;;58.20;;
40793;SDS011;26502;51.886;15.604;2024-03-02T09:17:20;84.40;;;57.90;;
40793;SDS011;26502;51.886;15.604;2024-03-02T09:22:46;79.50;;;54.80;;
40793;SDS011;26502;51.886;15.604;2024-03-02T09:28:12;78.80;;;55.10;;
40793;SDS011;26502;51.886;15.604;2024-03-02T09:33:39;66.50;;;46.50;;
40793;SDS011;26502;51.886;15.604;2024-03-02T09:39:05;57.70;;;41.60;;
40793;SDS011;26502;51.886;15.604;2024-03-02T09:44:33;56.40;;;41.10;;
40793;SDS011;26502;51.886;15.604;2024-03-02T09:49:59;57.90;;;40.40;;
40793;SDS011;26502;51.886;15.604;2024-03-02T09:55:26;53.50;;;39.60;;
40793;SDS011;26502;51.886;15.604;2024-03-02T10:00:52;53.90;;;36.40;;
40793;SDS011;26502;51.886;15.604;2024-03-02T10:06:22;53.00;;;38.40;;
40793;SDS011;26502;51.886;15.604;2024-03-02T10:11:49;49.10;;;35.50;;
40793;SDS011;26502;51.886;15.604;2024-03-02T10:17:16;54.40;;;35.90;;
40793;SDS011;26502;51.886;15.604;2024-03-02T10:22:42;48.30;;;35.80;;
40793;SDS011;26502;51.886;15.604;2024-03-02T10:28:09;45.00;;;32.50;;
40793;SDS011;26502;51.886;15.604;2024-03-02T10:33:35;48.50;;;33.60;;
40793;SDS011;26502;51.886;15.604;2024-03-02T10:39:02;40.80;;;31.10;;
40793;SDS011;26502;51.886;15.604;2024-03-02T10:44:28;42.30;;;31.30;;
40793;SDS011;26502;51.886;15.604;2024-03-02T10:49:56;45.70;;;30.50;;
40793;SDS011;26502;51.886;15.604;2024-03-02T10:55:26;42.20;;;30.70;;
40793;SDS011;26502;51.886;15.604;2024-03-02T11:00:52;38.70;;;28.60;;
40793;SDS011;26502;51.886;15.604;2024-03-02T11:06:18;37.10;;;27.70;;
40793;SDS011;26502;51.886;15.604;2024-03-02T11:11:48;39.40;;;27.80;;
40793;SDS011;26502;51.886;15.604;2024-03-02T11:17:19;35.90;;;24.30;;
40793;SDS011;26502;51.886;15.604;2024-03-02T11:22:45;35.20;;;24.00;;
40793;SDS011;26502;51.886;15.604;2024-03-02T11:28:11;31.10;;;23.20;;
40793;SDS011;26502;51.886;15.604;2024-03-02T11:33:37;31.80;;;23.30;;
40793;SDS011;26502;51.886;15.604;2024-03-02T11:39:03;32.10;;;23.80;;
40793;SDS011;26502;51.886;15.604;2024-03-02T11:44:30;33.60;;;24.30;;
40793;SDS011;26502;51.886;15.604;2024-03-02T11:49:58;30.00;;;21.60;;
40793;SDS011;26502;51.886;15.604;2024-03-02T11:55:24;28.50;;;21.20;;
40793;SDS011;26502;51.886;15.604;2024-03-02T12:00:52;29.40;;;22.00;;
40793;SDS011;26502;51.886;15.604;2024-03-02T12:06:19;26.80;;;21.60;;
40793;SDS011;26502;51.886;15.604;2024-03-02T12:11:46;26.70;;;21.00;;
40793;SDS011;26502;51.886;15.604;2024-03-02T12:17:12;28.70;;;22.80;;
40793;SDS011;26502;51.886;15.604;2024-03-02T12:22:37;34.70;;;25.50;;
40793;SDS011;26502;51.886;15.604;2024-03-02T12:28:04;33.00;;;24.10;;
40793;SDS011;26502;51.886;15.604;2024-03-02T12:33:31;28.50;;;23.50;;
40793;SDS011;26502;51.886;15.604;2024-03-02T12:38:57;33.50;;;25.30;;
40793;SDS011;26502;51.886;15.604;2024-03-02T12:44:23;33.00;;;25.20;;
40793;SDS011;26502;51.886;15.604;2024-03-02T12:49:48;42.70;;;28.60;;
40793;SDS011;26502;51.886;15.604;2024-03-02T12:55:15;40.90;;;32.20;;
40793;SDS011;26502;51.886;15.604;2024-03-02T13:00:41;45.00;;;33.80;;
40793;SDS011;26502;51.886;15.604;2024-03-02T13:06:07;46.40;;;33.30;;
40793;SDS011;26502;51.886;15.604;2024-03-02T13:11:33;42.00;;;32.30;;
40793;SDS011;26502;51.886;15.604;2024-03-02T13:17:00;40.40;;;29.30;;
40793;SDS011;26502;51.886;15.604;2024-03-02T13:22:28;38.70;;;31.50;;
40793;SDS011;26502;51.886;15.604;2024-03-02T13:27:54;34.60;;;28.40;;
40793;SDS011;26502;51.886;15.604;2024-03-02T13:33:19;36.50;;;29.10;;
40793;SDS011;26502;51.886;15.604;2024-03-02T13:38:46;37.80;;;29.00;;
40793;SDS011;26502;51.886;15.604;2024-03-02T13:44:14;39.70;;;31.60;;
40793;SDS011;26502;51.886;15.604;2024-03-02T13:49:40;38.80;;;29.80;;
40793;SDS011;26502;51.886;15.604;2024-03-02T13:55:08;38.10;;;27.90;;
40793;SDS011;26502;51.886;15.604;2024-03-02T14:00:34;36.70;;;27.20;;
40793;SDS011;26502;51.886;15.604;2024-03-02T14:06:01;35.70;;;27.90;;
40793;SDS011;26502;51.886;15.604;2024-03-02T14:11:28;34.50;;;27.50;;
40793;SDS011;26502;51.886;15.604;2024-03-02T14:16:54;34.50;;;26.90;;
40793;SDS011;26502;51.886;15.604;2024-03-02T14:22:23;37.50;;;28.80;;
40793;SDS011;26502;51.886;15.604;2024-03-02T14:27:49;37.60;;;28.10;;
40793;SDS011;26502;51.886;15.604;2024-03-02T14:33:15;35.10;;;27.60;;
40793;SDS011;26502;51.886;15.604;2024-03-02T14:38:41;35.00;;;25.40;;
40793;SDS011;26502;51.886;15.604;2024-03-02T14:44:06;33.90;;;26.20;;
40793;SDS011;26502;51.886;15.604;2024-03-02T14:49:32;34.40;;;24.90;;
40793;SDS011;26502;51.886;15.604;2024-03-02T14:55:01;33.00;;;24.10;;
40793;SDS011;26502;51.886;15.604;2024-03-02T15:00:30;32.00;;;22.60;;
40793;SDS011;26502;51.886;15.604;2024-03-02T15:05:56;25.80;;;22.10;;
40793;SDS011;26502;51.886;15.604;2024-03-02T15:11:24;28.40;;;21.40;;
40793;SDS011;26502;51.886;15.604;2024-03-02T15:16:50;27.70;;;21.00;;
40793;SDS011;26502;51.886;15.604;2024-03-02T15:22:16;32.60;;;23.40;;
40793;SDS011;26502;51.886;15.604;2024-03-02T15:27:42;37.80;;;27.00;;
40793;SDS011;26502;51.886;15.604;2024-03-02T15:33:08;30.70;;;24.10;;
40793;SDS011;26502;51.886;15.604;2024-03-02T15:38:34;49.40;;;34.70;;
40793;SDS011;26502;51.886;15.604;2024-03-02T15:44:00;35.40;;;30.10;;
40793;SDS011;26502;51.886;15.604;2024-03-02T15:49:26;35.70;;;27.90;;
40793;SDS011;26502;51.886;15.604;2024-03-02T15:54:54;36.40;;;26.40;;
40793;SDS011;26502;51.886;15.604;2024-03-02T16:00:20;34.00;;;25.10;;
40793;SDS011;26502;51.886;15.604;2024-03-02T16:05:46;32.50;;;23.90;;
40793;SDS011;26502;51.886;15.604;2024-03-02T16:11:12;33.60;;;24.20;;
40793;SDS011;26502;51.886;15.604;2024-03-02T16:16:38;39.00;;;26.80;;
40793;SDS011;26502;51.886;15.604;2024-03-02T16:22:05;46.80;;;30.50;;
40793;SDS011;26502;51.886;15.604;2024-03-02T16:27:33;53.40;;;35.30;;
40793;SDS011;26502;51.886;15.604;2024-03-02T16:32:59;58.00;;;38.10;;
40793;SDS011;26502;51.886;15.604;2024-03-02T16:38:27;48.10;;;33.90;;
40793;SDS011;26502;51.886;15.604;2024-03-02T16:43:53;36.90;;;27.90;;
40793;SDS011;26502;51.886;15.604;2024-03-02T16:49:19;28.20;;;21.80;;
40793;SDS011;26502;51.886;15.604;2024-03-02T16:54:47;25.20;;;19.40;;
40793;SDS011;26502;51.886;15.604;2024-03-02T17:00:14;24.70;;;21.10;;
40793;SDS011;26502;51.886;15.604;2024-03-02T17:05:41;27.20;;;19.70;;
40793;SDS011;26502;51.886;15.604;2024-03-02T17:11:07;25.10;;;19.60;;
40793;SDS011;26502;51.886;15.604;2024-03-02T17:16:33;31.00;;;21.20;;
40793;SDS011;26502;51.886;15.604;2024-03-02T17:21:59;30.70;;;20.80;;
40793;SDS011;26502;51.886;15.604;2024-03-02T17:27:24;30.40;;;19.90;;
40793;SDS011;26502;51.886;15.604;2024-03-02T17:32:53;29.20;;;21.10;;
40793;SDS011;26502;51.886;15.604;2024-03-02T17:38:21;28.50;;;20.10;;
40793;SDS011;26502;51.886;15.604;2024-03-02T17:43:47;25.00;;;19.70;;
40793;SDS011;26502;51.886;15.604;2024-03-02T17:49:14;26.80;;;19.30;;
40793;SDS011;26502;51.886;15.604;2024-03-02T17:54:39;30.40;;;20.30;;
40793;SDS011;26502;51.886;15.604;2024-03-02T18:00:06;28.00;;;20.50;;
40793;SDS011;26502;51.886;15.604;2024-03-02T18:05:36;31.10;;;22.60;;
40793;SDS011;26502;51.886;15.604;2024-03-02T18:11:02;29.00;;;22.00;;
40793;SDS011;26502;51.886;15.604;2024-03-02T18:16:29;30.50;;;22.90;;
40793;SDS011;26502;51.886;15.604;2024-03-02T18:21:55;31.40;;;22.70;;
40793;SDS011;26502;51.886;15.604;2024-03-02T18:27:21;31.40;;;22.80;;
40793;SDS011;26502;51.886;15.604;2024-03-02T18:32:47;34.20;;;25.20;;
40793;SDS011;26502;51.886;15.604;2024-03-02T18:38:13;29.60;;;22.10;;
40793;SDS011;26502;51.886;15.604;2024-03-02T18:43:39;31.20;;;22.30;;
40793;SDS011;26502;51.886;15.604;2024-03-02T18:49:05;27.40;;;21.30;;
40793;SDS011;26502;51.886;15.604;2024-03-02T18:54:32;25.80;;;19.70;;
40793;SDS011;26502;51.886;15.604;2024-03-02T18:59:58;29.30;;;22.10;;
40793;SDS011;26502;51.886;15.604;2024-03-02T19:05:26;27.70;;;19.40;;
40793;SDS011;26502;51.886;15.604;2024-03-02T19:10:52;29.60;;;20.30;;
40793;SDS011;26502;51.886;15.604;2024-03-02T19:16:18;28.60;;;20.10;;
40793;SDS011;26502;51.886;15.604;2024-03-02T19:21:44;25.00;;;18.90;;
40793;SDS011;26502;51.886;15.604;2024-03-02T19:27:10;25.10;;;19.70;;
40793;SDS011;26502;51.886;15.604;2024-03-02T19:32:38;25.30;;;19.20;;
40793;SDS011;26502;51.886;15.604;2024-03-02T19:38:06;31.10;;;19.00;;
40793;SDS011;26502;51.886;15.604;2024-03-02T19:43:32;26.70;;;19.80;;
40793;SDS011;26502;51.886;15.604;2024-03-02T19:48:58;29.50;;;19.90;;
40793;SDS011;26502;51.886;15.604;2024-03-02T19:54:24;24.60;;;19.10;;
40793;SDS011;26502;51.886;15.604;2024-03-02T19:59:49;25.20;;;19.30;;
40793;SDS011;26502;51.886;15.604;2024-03-02T20:05:15;22.50;;;17.10;;
40793;SDS011;26502;51.886;15.604;2024-03-02T20:10:41;28.60;;;19.10;;
40793;SDS011;26502;51.886;15.604;2024-03-02T20:16:08;25.50;;;18.60;;
40793;SDS011;26502;51.886;15.604;2024-03-02T20:21:34;25.50;;;17.20;;
40793;SDS011;26502;51.886;15.604;2024-03-02T20:27:00;27.10;;;19.50;;
40793;SDS011;26502;51.886;15.604;2024-03-02T20:32:27;25.80;;;19.10;;
40793;SDS011;26502;51.886;15.604;2024-03-02T20:37:53;29.40;;;19.40;;
40793;SDS011;26502;51.886;15.604;2024-03-02T20:43:18;25.80;;;19.50;;
40793;SDS011;26502;51.886;15.604;2024-03-02T20:48:44;26.30;;;19.40;;
40793;SDS011;26502;51.886;15.604;2024-03-02T20:54:11;28.70;;;19.30;;
40793;SDS011;26502;51.886;15.604;2024-03-02T20:59:37;24.50;;;18.20;;
40793;SDS011;26502;51.886;15.604;2024-03-02T21:05:04;25.60;;;18.80;;
40793;SDS011;26502;51.886;15.604;2024-03-02T21:10:31;30.90;;;19.10;;
40793;SDS011;26502;51.886;15.604;2024-03-02T21:15:56;25.50;;;19.10;;
40793;SDS011;26502;51.886;15.604;2024-03-02T21:21:23;27.80;;;19.10;;
40793;SDS011;26502;51.886;15.604;2024-03-02T21:26:51;27.60;;;20.40;;
40793;SDS011;26502;51.886;15.604;2024-03-02T21:32:16;30.90;;;22.70;;
40793;SDS011;26502;51.886;15.604;2024-03-02T21:37:42;30.00;;;21.00;;
40793;SDS011;26502;51.886;15.604;2024-03-02T21:43:08;33.50;;;23.20;;
40793;SDS011;26502;51.886;15.604;2024-03-02T21:48:35;31.60;;;23.20;;
40793;SDS011;26502;51.886;15.604;2024-03-02T21:54:00;38.80;;;26.30;;
40793;SDS011;26502;51.886;15.604;2024-03-02T21:59:26;36.70;;;25.30;;
40793;SDS011;26502;51.886;15.604;2024-03-02T22:04:52;32.60;;;24.00;;
40793;SDS011;26502;51.886;15.604;2024-03-02T22:10:19;32.60;;;22.30;;
40793;SDS011;26502;51.886;15.604;2024-03-02T22:15:44;32.80;;;22.70;;
40793;SDS011;26502;51.886;15.604;2024-03-02T22:21:13;31.90;;;22.30;;
40793;SDS011;26502;51.886;15.604;2024-03-02T22:26:39;34.40;;;22.60;;
40793;SDS011;26502;51.886;15.604;2024-03-02T22:32:06;32.00;;;22.60;;
40793;SDS011;26502;51.886;15.604;2024-03-02T22:37:32;38.60;;;23.70;;
40793;SDS011;26502;51.886;15.604;2024-03-02T22:42:58;33.30;;;24.20;;
40793;SDS011;26502;51.886;15.604;2024-03-02T22:48:24;35.90;;;24.80;;
40793;SDS011;26502;51.886;15.604;2024-03-02T22:53:51;39.20;;;26.60;;
40793;SDS011;26502;51.886;15.604;2024-03-02T22:59:17;40.50;;;28.90;;
40793;SDS011;26502;51.886;15.604;2024-03-02T23:04:43;41.30;;;29.50;;
40793;SDS011;26502;51.886;15.604;2024-03-02T23:10:10;42.90;;;28.10;;
40793;SDS011;26502;51.886;15.604;2024-03-02T23:15:35;40.30;;;27.80;;
40793;SDS011;26502;51.886;15.604;2024-03-02T23:21:04;44.80;;;30.10;;
40793;SDS011;26502;51.886;15.604;2024-03-02T23:26:30;40.10;;;28.20;;
40793;SDS011;26502;51.886;15.604;2024-03-02T23:31:56;42.70;;;29.90;;
40793;SDS011;26502;51.886;15.604;2024-03-02T23:37:22;39.10;;;27.50;;
40793;SDS011;26502;51.886;15.604;2024-03-02T23:42:47;40.30;;;29.80;;
40793;SDS011;26502;51.886;15.604;2024-03-02T23:48:13;42.10;;;28.30;;
40793;SDS011;26502;51.886;15.604;2024-03-02T23:53:39;44.50;;;30.00;;
40793;SDS011;26502;51.886;15.604;2024-03-02T23:59:05;40.20;;;29.00;;
